sensor_id;sensor_type;location;lat;lon;timestamp;temperature;humidity
70807;DHT22;58882;52.170;5.386;2023-04-15T00:00:57;16.40;36.40
70807;DHT22;58882;52.170;5.386;2023-04-15T00:03:24;16.40;36.50
70807;DHT22;58882;52.170;5.386;2023-04-15T00:05:52;16.40;36.70
70807;DHT22;58882;52.170;5.386;2023-04-15T00:08:19;16.40;36.70
70807;DHT22;58882;52.170;5.386;2023-04-15T00:10:46;16.40;36.80
70807;DHT22;58882;52.170;5.386;2023-04-15T00:13:13;16.40;36.80
70807;DHT22;58882;52.170;5.386;2023-04-15T00:15:41;16.40;36.90
70807;DHT22;58882;52.170;5.386;2023-04-15T00:18:08;16.40;36.90
70807;DHT22;58882;52.170;5.386;2023-04-15T00:20:35;16.40;37.00
70807;DHT22;58882;52.170;5.386;2023-04-15T00:23:02;16.40;37.00
70807;DHT22;58882;52.170;5.386;2023-04-15T00:25:30;16.30;37.10
70807;DHT22;58882;52.170;5.386;2023-04-15T00:27:57;16.30;37.20
70807;DHT22;58882;52.170;5.386;2023-04-15T00:30:24;16.30;37.40
70807;DHT22;58882;52.170;5.386;2023-04-15T00:32:52;16.30;37.40
70807;DHT22;58882;52.170;5.386;2023-04-15T00:35:20;16.20;37.30
70807;DHT22;58882;52.170;5.386;2023-04-15T00:37:49;16.30;37.50
70807;DHT22;58882;52.170;5.386;2023-04-15T00:40:17;16.20;37.40
70807;DHT22;58882;52.170;5.386;2023-04-15T00:42:45;16.20;37.60
70807;DHT22;58882;52.170;5.386;2023-04-15T00:45:12;16.20;37.60
70807;DHT22;58882;52.170;5.386;2023-04-15T00:47:43;16.20;37.60
70807;DHT22;58882;52.170;5.386;2023-04-15T00:50:11;16.10;37.50
70807;DHT22;58882;52.170;5.386;2023-04-15T00:52:39;16.10;37.70
70807;DHT22;58882;52.170;5.386;2023-04-15T00:55:07;16.10;38.00
70807;DHT22;58882;52.170;5.386;2023-04-15T00:57:34;16.10;38.10
70807;DHT22;58882;52.170;5.386;2023-04-15T01:00:02;16.10;38.30
70807;DHT22;58882;52.170;5.386;2023-04-15T01:02:30;16.10;38.40
70807;DHT22;58882;52.170;5.386;2023-04-15T01:05:00;16.10;38.50
70807;DHT22;58882;52.170;5.386;2023-04-15T01:07:27;16.10;38.50
70807;DHT22;58882;52.170;5.386;2023-04-15T01:09:54;16.00;38.50
70807;DHT22;58882;52.170;5.386;2023-04-15T01:12:21;16.00;38.90
70807;DHT22;58882;52.170;5.386;2023-04-15T01:14:50;16.00;38.50
70807;DHT22;58882;52.170;5.386;2023-04-15T01:17:17;16.00;38.50
70807;DHT22;58882;52.170;5.386;2023-04-15T01:19:44;16.00;38.60
70807;DHT22;58882;52.170;5.386;2023-04-15T01:22:12;16.00;38.70
70807;DHT22;58882;52.170;5.386;2023-04-15T01:24:39;15.90;38.70
70807;DHT22;58882;52.170;5.386;2023-04-15T01:27:06;15.90;38.80
70807;DHT22;58882;52.170;5.386;2023-04-15T01:29:37;15.90;38.90
70807;DHT22;58882;52.170;5.386;2023-04-15T01:32:04;15.90;38.90
70807;DHT22;58882;52.170;5.386;2023-04-15T01:34:31;15.90;38.80
70807;DHT22;58882;52.170;5.386;2023-04-15T01:37:01;15.90;38.70
70807;DHT22;58882;52.170;5.386;2023-04-15T01:39:28;15.80;38.80
70807;DHT22;58882;52.170;5.386;2023-04-15T01:41:55;15.80;38.80
70807;DHT22;58882;52.170;5.386;2023-04-15T01:44:23;15.80;39.00
70807;DHT22;58882;52.170;5.386;2023-04-15T01:46:50;15.80;39.20
70807;DHT22;58882;52.170;5.386;2023-04-15T01:49:16;15.80;39.10
70807;DHT22;58882;52.170;5.386;2023-04-15T01:51:43;15.80;39.20
70807;DHT22;58882;52.170;5.386;2023-04-15T01:54:11;15.70;39.20
70807;DHT22;58882;52.170;5.386;2023-04-15T01:56:38;15.70;39.40
70807;DHT22;58882;52.170;5.386;2023-04-15T01:59:05;15.70;39.30
70807;DHT22;58882;52.170;5.386;2023-04-15T02:01:32;15.70;39.30
70807;DHT22;58882;52.170;5.386;2023-04-15T02:03:59;15.70;39.30
70807;DHT22;58882;52.170;5.386;2023-04-15T02:06:26;15.60;39.50
70807;DHT22;58882;52.170;5.386;2023-04-15T02:08:54;15.60;39.50
70807;DHT22;58882;52.170;5.386;2023-04-15T02:11:21;15.60;39.60
70807;DHT22;58882;52.170;5.386;2023-04-15T02:13:48;15.60;39.60
70807;DHT22;58882;52.170;5.386;2023-04-15T02:16:18;15.60;39.70
70807;DHT22;58882;52.170;5.386;2023-04-15T02:18:45;15.50;39.80
70807;DHT22;58882;52.170;5.386;2023-04-15T02:21:12;15.50;39.90
70807;DHT22;58882;52.170;5.386;2023-04-15T02:23:39;15.50;40.00
70807;DHT22;58882;52.170;5.386;2023-04-15T02:26:06;15.50;40.10
70807;DHT22;58882;52.170;5.386;2023-04-15T02:28:33;15.40;40.10
70807;DHT22;58882;52.170;5.386;2023-04-15T02:31:04;15.40;40.10
70807;DHT22;58882;52.170;5.386;2023-04-15T02:33:32;15.30;40.30
70807;DHT22;58882;52.170;5.386;2023-04-15T02:35:59;15.30;40.30
70807;DHT22;58882;52.170;5.386;2023-04-15T02:38:27;15.30;40.30
70807;DHT22;58882;52.170;5.386;2023-04-15T02:40:54;15.30;40.50
70807;DHT22;58882;52.170;5.386;2023-04-15T02:43:21;15.30;40.60
70807;DHT22;58882;52.170;5.386;2023-04-15T02:45:49;15.20;40.60
70807;DHT22;58882;52.170;5.386;2023-04-15T02:48:17;15.20;40.70
70807;DHT22;58882;52.170;5.386;2023-04-15T02:50:45;15.20;40.80
70807;DHT22;58882;52.170;5.386;2023-04-15T02:53:13;15.20;40.70
70807;DHT22;58882;52.170;5.386;2023-04-15T02:55:41;15.20;40.80
70807;DHT22;58882;52.170;5.386;2023-04-15T02:58:08;15.20;41.00
70807;DHT22;58882;52.170;5.386;2023-04-15T03:00:36;15.20;41.00
70807;DHT22;58882;52.170;5.386;2023-04-15T03:03:04;15.20;41.10
70807;DHT22;58882;52.170;5.386;2023-04-15T03:05:32;15.20;41.20
70807;DHT22;58882;52.170;5.386;2023-04-15T03:08:00;15.10;41.20
70807;DHT22;58882;52.170;5.386;2023-04-15T03:10:27;15.10;41.30
70807;DHT22;58882;52.170;5.386;2023-04-15T03:12:54;15.10;41.40
70807;DHT22;58882;52.170;5.386;2023-04-15T03:15:22;15.10;41.40
70807;DHT22;58882;52.170;5.386;2023-04-15T03:17:51;15.10;41.50
70807;DHT22;58882;52.170;5.386;2023-04-15T03:20:18;15.10;41.60
70807;DHT22;58882;52.170;5.386;2023-04-15T03:22:47;15.10;41.60
70807;DHT22;58882;52.170;5.386;2023-04-15T03:25:14;15.00;42.60
70807;DHT22;58882;52.170;5.386;2023-04-15T03:27:42;15.00;41.70
70807;DHT22;58882;52.170;5.386;2023-04-15T03:30:10;15.00;41.70
70807;DHT22;58882;52.170;5.386;2023-04-15T03:32:39;15.00;41.80
70807;DHT22;58882;52.170;5.386;2023-04-15T03:35:07;15.00;42.00
70807;DHT22;58882;52.170;5.386;2023-04-15T03:37:33;15.00;42.10
70807;DHT22;58882;52.170;5.386;2023-04-15T03:40:01;15.00;42.10
70807;DHT22;58882;52.170;5.386;2023-04-15T03:42:27;14.90;42.10
70807;DHT22;58882;52.170;5.386;2023-04-15T03:44:54;14.90;42.20
70807;DHT22;58882;52.170;5.386;2023-04-15T03:47:21;14.90;42.40
70807;DHT22;58882;52.170;5.386;2023-04-15T03:49:48;14.90;42.40
70807;DHT22;58882;52.170;5.386;2023-04-15T03:52:15;14.90;42.50
70807;DHT22;58882;52.170;5.386;2023-04-15T03:54:42;14.90;42.60
70807;DHT22;58882;52.170;5.386;2023-04-15T03:57:09;14.90;42.60
70807;DHT22;58882;52.170;5.386;2023-04-15T03:59:36;14.90;42.70
70807;DHT22;58882;52.170;5.386;2023-04-15T04:02:02;14.90;42.80
70807;DHT22;58882;52.170;5.386;2023-04-15T04:04:29;14.90;42.90
70807;DHT22;58882;52.170;5.386;2023-04-15T04:06:56;14.90;42.90
70807;DHT22;58882;52.170;5.386;2023-04-15T04:09:23;14.90;42.90
70807;DHT22;58882;52.170;5.386;2023-04-15T04:11:51;14.80;42.90
70807;DHT22;58882;52.170;5.386;2023-04-15T04:14:18;14.90;43.00
70807;DHT22;58882;52.170;5.386;2023-04-15T04:16:44;14.80;43.10
70807;DHT22;58882;52.170;5.386;2023-04-15T04:19:12;14.80;43.30
70807;DHT22;58882;52.170;5.386;2023-04-15T04:21:40;14.80;43.40
70807;DHT22;58882;52.170;5.386;2023-04-15T04:24:07;14.80;43.40
70807;DHT22;58882;52.170;5.386;2023-04-15T04:26:33;14.80;43.50
70807;DHT22;58882;52.170;5.386;2023-04-15T04:29:00;14.80;43.60
70807;DHT22;58882;52.170;5.386;2023-04-15T04:31:27;14.80;43.60
70807;DHT22;58882;52.170;5.386;2023-04-15T04:33:54;14.80;43.60
70807;DHT22;58882;52.170;5.386;2023-04-15T04:36:21;14.80;43.70
70807;DHT22;58882;52.170;5.386;2023-04-15T04:38:48;14.80;43.90
70807;DHT22;58882;52.170;5.386;2023-04-15T04:41:15;14.80;43.90
70807;DHT22;58882;52.170;5.386;2023-04-15T04:43:41;14.80;43.80
70807;DHT22;58882;52.170;5.386;2023-04-15T04:46:08;14.80;43.90
70807;DHT22;58882;52.170;5.386;2023-04-15T04:48:35;14.70;43.80
70807;DHT22;58882;52.170;5.386;2023-04-15T04:51:02;14.80;43.90
70807;DHT22;58882;52.170;5.386;2023-04-15T04:53:29;14.70;44.00
70807;DHT22;58882;52.170;5.386;2023-04-15T04:55:56;14.70;44.00
70807;DHT22;58882;52.170;5.386;2023-04-15T04:58:23;14.70;44.00
70807;DHT22;58882;52.170;5.386;2023-04-15T05:00:50;14.70;44.10
70807;DHT22;58882;52.170;5.386;2023-04-15T05:03:17;14.70;44.10
70807;DHT22;58882;52.170;5.386;2023-04-15T05:05:45;14.70;44.20
70807;DHT22;58882;52.170;5.386;2023-04-15T05:08:12;14.70;44.40
70807;DHT22;58882;52.170;5.386;2023-04-15T05:10:38;14.70;44.30
70807;DHT22;58882;52.170;5.386;2023-04-15T05:13:05;14.70;44.30
70807;DHT22;58882;52.170;5.386;2023-04-15T05:15:32;14.70;44.30
70807;DHT22;58882;52.170;5.386;2023-04-15T05:18:00;14.70;44.40
70807;DHT22;58882;52.170;5.386;2023-04-15T05:20:27;14.70;44.30
70807;DHT22;58882;52.170;5.386;2023-04-15T05:22:54;14.70;44.20
70807;DHT22;58882;52.170;5.386;2023-04-15T05:25:21;14.70;44.20
70807;DHT22;58882;52.170;5.386;2023-04-15T05:27:48;14.70;44.40
70807;DHT22;58882;52.170;5.386;2023-04-15T05:30:15;14.70;44.50
70807;DHT22;58882;52.170;5.386;2023-04-15T05:32:42;14.70;44.40
70807;DHT22;58882;52.170;5.386;2023-04-15T05:35:09;14.70;44.40
70807;DHT22;58882;52.170;5.386;2023-04-15T05:37:36;14.70;44.50
70807;DHT22;58882;52.170;5.386;2023-04-15T05:40:03;14.70;44.50
70807;DHT22;58882;52.170;5.386;2023-04-15T05:42:30;14.70;44.40
70807;DHT22;58882;52.170;5.386;2023-04-15T05:44:57;14.70;44.40
70807;DHT22;58882;52.170;5.386;2023-04-15T05:47:23;14.70;44.50
70807;DHT22;58882;52.170;5.386;2023-04-15T05:49:50;14.70;44.40
70807;DHT22;58882;52.170;5.386;2023-04-15T05:52:17;14.70;44.50
70807;DHT22;58882;52.170;5.386;2023-04-15T05:54:44;14.70;44.50
70807;DHT22;58882;52.170;5.386;2023-04-15T05:57:11;14.60;44.50
70807;DHT22;58882;52.170;5.386;2023-04-15T05:59:38;14.60;44.60
70807;DHT22;58882;52.170;5.386;2023-04-15T06:02:05;14.60;44.70
70807;DHT22;58882;52.170;5.386;2023-04-15T06:04:32;14.60;44.80
70807;DHT22;58882;52.170;5.386;2023-04-15T06:06:59;14.60;45.00
70807;DHT22;58882;52.170;5.386;2023-04-15T06:09:26;14.60;45.00
70807;DHT22;58882;52.170;5.386;2023-04-15T06:11:54;14.70;45.00
70807;DHT22;58882;52.170;5.386;2023-04-15T06:14:22;14.70;45.00
70807;DHT22;58882;52.170;5.386;2023-04-15T06:16:49;14.70;45.00
70807;DHT22;58882;52.170;5.386;2023-04-15T06:19:16;14.80;45.10
70807;DHT22;58882;52.170;5.386;2023-04-15T06:21:44;14.80;45.10
70807;DHT22;58882;52.170;5.386;2023-04-15T06:24:11;14.80;45.20
70807;DHT22;58882;52.170;5.386;2023-04-15T06:26:38;14.80;45.10
70807;DHT22;58882;52.170;5.386;2023-04-15T06:29:04;14.90;45.20
70807;DHT22;58882;52.170;5.386;2023-04-15T06:31:31;14.90;45.10
70807;DHT22;58882;52.170;5.386;2023-04-15T06:33:58;14.90;45.10
70807;DHT22;58882;52.170;5.386;2023-04-15T06:36:25;15.00;45.00
70807;DHT22;58882;52.170;5.386;2023-04-15T06:38:52;15.10;44.90
70807;DHT22;58882;52.170;5.386;2023-04-15T06:41:18;15.20;44.80
70807;DHT22;58882;52.170;5.386;2023-04-15T06:43:45;15.30;44.70
70807;DHT22;58882;52.170;5.386;2023-04-15T06:46:12;15.40;44.60
70807;DHT22;58882;52.170;5.386;2023-04-15T06:48:39;15.40;44.60
70807;DHT22;58882;52.170;5.386;2023-04-15T06:51:06;15.50;44.50
70807;DHT22;58882;52.170;5.386;2023-04-15T06:53:33;15.50;44.30
70807;DHT22;58882;52.170;5.386;2023-04-15T06:56:01;15.60;44.30
70807;DHT22;58882;52.170;5.386;2023-04-15T06:58:27;15.70;44.40
70807;DHT22;58882;52.170;5.386;2023-04-15T07:00:55;15.80;44.50
70807;DHT22;58882;52.170;5.386;2023-04-15T07:03:21;16.00;44.40
70807;DHT22;58882;52.170;5.386;2023-04-15T07:05:48;16.20;44.10
70807;DHT22;58882;52.170;5.386;2023-04-15T07:08:15;16.60;43.60
70807;DHT22;58882;52.170;5.386;2023-04-15T07:10:42;17.20;42.90
70807;DHT22;58882;52.170;5.386;2023-04-15T07:13:09;17.70;42.00
70807;DHT22;58882;52.170;5.386;2023-04-15T07:15:36;18.10;41.00
70807;DHT22;58882;52.170;5.386;2023-04-15T07:18:03;18.50;40.00
70807;DHT22;58882;52.170;5.386;2023-04-15T07:20:30;18.80;39.20
70807;DHT22;58882;52.170;5.386;2023-04-15T07:22:57;19.00;38.80
70807;DHT22;58882;52.170;5.386;2023-04-15T07:25:24;19.20;38.40
70807;DHT22;58882;52.170;5.386;2023-04-15T07:27:52;19.20;38.00
70807;DHT22;58882;52.170;5.386;2023-04-15T07:30:19;19.30;37.80
70807;DHT22;58882;52.170;5.386;2023-04-15T07:32:46;19.40;37.80
70807;DHT22;58882;52.170;5.386;2023-04-15T07:35:13;19.50;37.50
70807;DHT22;58882;52.170;5.386;2023-04-15T07:37:40;19.80;37.10
70807;DHT22;58882;52.170;5.386;2023-04-15T07:40:08;20.10;36.70
70807;DHT22;58882;52.170;5.386;2023-04-15T07:42:35;20.50;36.60
70807;DHT22;58882;52.170;5.386;2023-04-15T07:45:06;21.00;36.10
70807;DHT22;58882;52.170;5.386;2023-04-15T07:47:34;21.50;34.90
70807;DHT22;58882;52.170;5.386;2023-04-15T07:50:01;21.80;33.90
70807;DHT22;58882;52.170;5.386;2023-04-15T07:52:28;22.20;33.10
70807;DHT22;58882;52.170;5.386;2023-04-15T07:54:54;22.50;32.40
70807;DHT22;58882;52.170;5.386;2023-04-15T07:57:21;22.80;31.90
70807;DHT22;58882;52.170;5.386;2023-04-15T07:59:48;23.00;31.40
70807;DHT22;58882;52.170;5.386;2023-04-15T08:02:15;23.20;30.90
70807;DHT22;58882;52.170;5.386;2023-04-15T08:04:42;23.40;30.50
70807;DHT22;58882;52.170;5.386;2023-04-15T08:07:09;23.60;30.10
70807;DHT22;58882;52.170;5.386;2023-04-15T08:09:36;23.70;29.90
70807;DHT22;58882;52.170;5.386;2023-04-15T08:12:03;23.90;29.60
70807;DHT22;58882;52.170;5.386;2023-04-15T08:14:30;24.00;29.40
70807;DHT22;58882;52.170;5.386;2023-04-15T08:16:57;24.10;29.10
70807;DHT22;58882;52.170;5.386;2023-04-15T08:19:24;24.30;28.80
70807;DHT22;58882;52.170;5.386;2023-04-15T08:21:50;24.50;28.60
70807;DHT22;58882;52.170;5.386;2023-04-15T08:24:17;24.60;29.10
70807;DHT22;58882;52.170;5.386;2023-04-15T08:26:44;24.70;28.10
70807;DHT22;58882;52.170;5.386;2023-04-15T08:29:12;24.80;27.90
70807;DHT22;58882;52.170;5.386;2023-04-15T08:31:39;25.00;27.80
70807;DHT22;58882;52.170;5.386;2023-04-15T08:34:06;25.10;27.60
70807;DHT22;58882;52.170;5.386;2023-04-15T08:36:33;25.20;27.40
70807;DHT22;58882;52.170;5.386;2023-04-15T08:39:00;25.40;28.10
70807;DHT22;58882;52.170;5.386;2023-04-15T08:41:50;25.50;27.10
70807;DHT22;58882;52.170;5.386;2023-04-15T08:44:17;25.50;27.60
70807;DHT22;58882;52.170;5.386;2023-04-15T08:46:46;25.60;26.80
70807;DHT22;58882;52.170;5.386;2023-04-15T08:49:14;25.60;26.70
70807;DHT22;58882;52.170;5.386;2023-04-15T08:51:43;25.50;26.60
70807;DHT22;58882;52.170;5.386;2023-04-15T08:54:11;25.40;26.70
70807;DHT22;58882;52.170;5.386;2023-04-15T08:56:38;25.40;26.80
70807;DHT22;58882;52.170;5.386;2023-04-15T08:59:06;25.40;26.70
70807;DHT22;58882;52.170;5.386;2023-04-15T09:01:33;25.40;26.70
70807;DHT22;58882;52.170;5.386;2023-04-15T09:04:02;25.50;26.60
70807;DHT22;58882;52.170;5.386;2023-04-15T09:06:29;25.50;26.50
70807;DHT22;58882;52.170;5.386;2023-04-15T09:08:56;25.70;26.50
70807;DHT22;58882;52.170;5.386;2023-04-15T09:11:23;25.70;26.30
70807;DHT22;58882;52.170;5.386;2023-04-15T09:13:50;25.80;26.20
70807;DHT22;58882;52.170;5.386;2023-04-15T09:16:17;26.00;26.90
70807;DHT22;58882;52.170;5.386;2023-04-15T09:18:45;26.10;26.00
70807;DHT22;58882;52.170;5.386;2023-04-15T09:21:14;26.10;25.80
70807;DHT22;58882;52.170;5.386;2023-04-15T09:23:57;26.20;25.90
70807;DHT22;58882;52.170;5.386;2023-04-15T09:26:35;26.30;25.70
70807;DHT22;58882;52.170;5.386;2023-04-15T09:29:07;26.30;25.60
70807;DHT22;58882;52.170;5.386;2023-04-15T09:31:38;26.40;25.60
70807;DHT22;58882;52.170;5.386;2023-04-15T09:34:06;26.40;25.50
70807;DHT22;58882;52.170;5.386;2023-04-15T09:36:54;26.40;25.60
70807;DHT22;58882;52.170;5.386;2023-04-15T09:39:21;26.20;25.50
70807;DHT22;58882;52.170;5.386;2023-04-15T09:42:05;26.20;25.60
70807;DHT22;58882;52.170;5.386;2023-04-15T09:44:32;26.10;25.60
70807;DHT22;58882;52.170;5.386;2023-04-15T09:46:59;26.00;25.70
70807;DHT22;58882;52.170;5.386;2023-04-15T09:49:26;25.90;25.80
70807;DHT22;58882;52.170;5.386;2023-04-15T09:52:00;25.70;25.80
70807;DHT22;58882;52.170;5.386;2023-04-15T09:54:36;25.70;25.90
70807;DHT22;58882;52.170;5.386;2023-04-15T09:57:09;25.60;26.10
70807;DHT22;58882;52.170;5.386;2023-04-15T09:59:37;25.40;26.10
70807;DHT22;58882;52.170;5.386;2023-04-15T10:02:05;25.30;26.30
70807;DHT22;58882;52.170;5.386;2023-04-15T10:04:34;25.20;26.40
70807;DHT22;58882;52.170;5.386;2023-04-15T10:07:04;25.20;26.50
70807;DHT22;58882;52.170;5.386;2023-04-15T10:09:31;25.10;26.50
70807;DHT22;58882;52.170;5.386;2023-04-15T10:12:00;25.10;26.50
70807;DHT22;58882;52.170;5.386;2023-04-15T10:14:27;25.10;26.40
70807;DHT22;58882;52.170;5.386;2023-04-15T10:17:00;25.20;26.40
70807;DHT22;58882;52.170;5.386;2023-04-15T10:19:30;25.30;26.30
70807;DHT22;58882;52.170;5.386;2023-04-15T10:21:58;25.40;26.30
70807;DHT22;58882;52.170;5.386;2023-04-15T10:24:26;25.40;26.10
70807;DHT22;58882;52.170;5.386;2023-04-15T10:26:53;25.60;26.10
70807;DHT22;58882;52.170;5.386;2023-04-15T10:29:21;25.60;26.00
70807;DHT22;58882;52.170;5.386;2023-04-15T10:31:49;25.70;26.00
70807;DHT22;58882;52.170;5.386;2023-04-15T10:34:17;25.70;25.90
70807;DHT22;58882;52.170;5.386;2023-04-15T10:36:44;25.70;25.90
70807;DHT22;58882;52.170;5.386;2023-04-15T10:42:15;25.30;26.20
70807;DHT22;58882;52.170;5.386;2023-04-15T10:44:44;25.20;26.30
70807;DHT22;58882;52.170;5.386;2023-04-15T10:47:19;25.20;26.30
70807;DHT22;58882;52.170;5.386;2023-04-15T10:49:58;25.30;26.20
70807;DHT22;58882;52.170;5.386;2023-04-15T10:52:27;25.40;26.30
70807;DHT22;58882;52.170;5.386;2023-04-15T10:55:13;25.40;26.30
70807;DHT22;58882;52.170;5.386;2023-04-15T10:57:42;25.30;26.40
70807;DHT22;58882;52.170;5.386;2023-04-15T11:00:15;25.20;26.60
70807;DHT22;58882;52.170;5.386;2023-04-15T11:05:16;25.20;26.70
70807;DHT22;58882;52.170;5.386;2023-04-15T11:12:59;25.00;26.80
70807;DHT22;58882;52.170;5.386;2023-04-15T11:15:46;24.90;26.80
70807;DHT22;58882;52.170;5.386;2023-04-15T11:18:20;24.90;26.80
70807;DHT22;58882;52.170;5.386;2023-04-15T11:20:53;24.90;26.70
70807;DHT22;58882;52.170;5.386;2023-04-15T11:23:41;24.90;26.60
70807;DHT22;58882;52.170;5.386;2023-04-15T11:26:15;24.90;26.60
70807;DHT22;58882;52.170;5.386;2023-04-15T11:28:43;24.80;26.80
70807;DHT22;58882;52.170;5.386;2023-04-15T11:31:16;24.70;26.80
70807;DHT22;58882;52.170;5.386;2023-04-15T11:33:45;24.60;27.00
70807;DHT22;58882;52.170;5.386;2023-04-15T11:36:12;24.50;27.00
70807;DHT22;58882;52.170;5.386;2023-04-15T11:38:43;24.60;27.10
70807;DHT22;58882;52.170;5.386;2023-04-15T11:41:12;24.70;27.00
70807;DHT22;58882;52.170;5.386;2023-04-15T11:43:39;24.80;26.90
70807;DHT22;58882;52.170;5.386;2023-04-15T11:46:06;24.90;26.90
70807;DHT22;58882;52.170;5.386;2023-04-15T11:48:35;24.90;26.80
70807;DHT22;58882;52.170;5.386;2023-04-15T11:51:06;24.80;26.80
70807;DHT22;58882;52.170;5.386;2023-04-15T11:56:25;24.90;26.90
70807;DHT22;58882;52.170;5.386;2023-04-15T11:58:56;24.90;26.70
70807;DHT22;58882;52.170;5.386;2023-04-15T12:01:35;24.90;26.70
70807;DHT22;58882;52.170;5.386;2023-04-15T12:04:10;24.90;26.70
70807;DHT22;58882;52.170;5.386;2023-04-15T12:06:37;24.90;26.80
70807;DHT22;58882;52.170;5.386;2023-04-15T12:09:14;24.90;26.80
70807;DHT22;58882;52.170;5.386;2023-04-15T12:11:50;24.80;26.80
70807;DHT22;58882;52.170;5.386;2023-04-15T12:17:11;24.80;26.90
70807;DHT22;58882;52.170;5.386;2023-04-15T12:19:40;24.80;26.90
70807;DHT22;58882;52.170;5.386;2023-04-15T12:22:12;24.90;26.80
70807;DHT22;58882;52.170;5.386;2023-04-15T12:24:41;24.90;26.80
70807;DHT22;58882;52.170;5.386;2023-04-15T12:27:11;24.90;27.60
70807;DHT22;58882;52.170;5.386;2023-04-15T12:29:39;24.90;26.80
70807;DHT22;58882;52.170;5.386;2023-04-15T12:32:09;24.80;26.90
70807;DHT22;58882;52.170;5.386;2023-04-15T12:34:42;24.80;26.90
70807;DHT22;58882;52.170;5.386;2023-04-15T12:37:10;24.70;26.90
70807;DHT22;58882;52.170;5.386;2023-04-15T12:39:40;24.70;27.10
70807;DHT22;58882;52.170;5.386;2023-04-15T12:42:08;24.50;27.20
70807;DHT22;58882;52.170;5.386;2023-04-15T12:44:35;24.40;27.30
70807;DHT22;58882;52.170;5.386;2023-04-15T12:47:03;24.40;27.40
70807;DHT22;58882;52.170;5.386;2023-04-15T12:49:30;24.30;27.50
70807;DHT22;58882;52.170;5.386;2023-04-15T12:51:59;24.30;27.50
70807;DHT22;58882;52.170;5.386;2023-04-15T12:54:26;24.20;27.60
70807;DHT22;58882;52.170;5.386;2023-04-15T12:56:54;24.20;27.60
70807;DHT22;58882;52.170;5.386;2023-04-15T12:59:21;24.10;27.60
70807;DHT22;58882;52.170;5.386;2023-04-15T13:01:50;24.10;27.60
70807;DHT22;58882;52.170;5.386;2023-04-15T13:04:18;24.10;27.50
70807;DHT22;58882;52.170;5.386;2023-04-15T13:06:46;24.10;27.60
70807;DHT22;58882;52.170;5.386;2023-04-15T13:09:13;24.00;27.60
70807;DHT22;58882;52.170;5.386;2023-04-15T13:11:40;24.00;27.80
70807;DHT22;58882;52.170;5.386;2023-04-15T13:14:08;23.90;27.90
70807;DHT22;58882;52.170;5.386;2023-04-15T13:16:37;23.80;28.00
70807;DHT22;58882;52.170;5.386;2023-04-15T13:19:04;23.70;28.20
70807;DHT22;58882;52.170;5.386;2023-04-15T13:21:31;23.60;28.30
70807;DHT22;58882;52.170;5.386;2023-04-15T13:24:02;23.50;28.50
70807;DHT22;58882;52.170;5.386;2023-04-15T13:26:29;23.40;28.60
70807;DHT22;58882;52.170;5.386;2023-04-15T13:28:57;23.30;28.80
70807;DHT22;58882;52.170;5.386;2023-04-15T13:31:24;23.20;28.90
70807;DHT22;58882;52.170;5.386;2023-04-15T13:33:52;23.20;29.00
70807;DHT22;58882;52.170;5.386;2023-04-15T13:36:18;23.10;29.10
70807;DHT22;58882;52.170;5.386;2023-04-15T13:38:45;23.10;29.20
70807;DHT22;58882;52.170;5.386;2023-04-15T13:41:16;23.00;29.30
70807;DHT22;58882;52.170;5.386;2023-04-15T13:43:43;22.90;29.40
70807;DHT22;58882;52.170;5.386;2023-04-15T13:46:10;22.90;29.50
70807;DHT22;58882;52.170;5.386;2023-04-15T13:48:37;22.90;29.60
70807;DHT22;58882;52.170;5.386;2023-04-15T13:51:03;22.80;29.60
70807;DHT22;58882;52.170;5.386;2023-04-15T13:53:30;22.70;29.70
70807;DHT22;58882;52.170;5.386;2023-04-15T13:56:06;22.70;29.80
70807;DHT22;58882;52.170;5.386;2023-04-15T13:58:33;22.70;29.80
70807;DHT22;58882;52.170;5.386;2023-04-15T14:01:00;22.60;29.90
70807;DHT22;58882;52.170;5.386;2023-04-15T14:03:30;22.60;29.90
70807;DHT22;58882;52.170;5.386;2023-04-15T14:05:57;22.50;30.00
70807;DHT22;58882;52.170;5.386;2023-04-15T14:08:25;22.50;30.00
70807;DHT22;58882;52.170;5.386;2023-04-15T14:10:51;22.40;30.00
70807;DHT22;58882;52.170;5.386;2023-04-15T14:13:18;22.30;30.10
70807;DHT22;58882;52.170;5.386;2023-04-15T14:15:45;22.20;30.30
70807;DHT22;58882;52.170;5.386;2023-04-15T14:18:12;22.10;30.40
70807;DHT22;58882;52.170;5.386;2023-04-15T14:20:39;22.10;30.60
70807;DHT22;58882;52.170;5.386;2023-04-15T14:23:06;22.00;30.70
70807;DHT22;58882;52.170;5.386;2023-04-15T14:25:33;22.00;30.80
70807;DHT22;58882;52.170;5.386;2023-04-15T14:28:01;21.90;31.00
70807;DHT22;58882;52.170;5.386;2023-04-15T14:30:27;21.80;31.20
70807;DHT22;58882;52.170;5.386;2023-04-15T14:32:55;21.70;31.50
70807;DHT22;58882;52.170;5.386;2023-04-15T14:35:22;21.60;31.80
70807;DHT22;58882;52.170;5.386;2023-04-15T14:37:52;21.50;31.90
70807;DHT22;58882;52.170;5.386;2023-04-15T14:40:19;21.30;32.10
70807;DHT22;58882;52.170;5.386;2023-04-15T14:42:46;21.20;32.20
70807;DHT22;58882;52.170;5.386;2023-04-15T14:45:13;21.20;32.20
70807;DHT22;58882;52.170;5.386;2023-04-15T14:47:40;21.20;32.10
70807;DHT22;58882;52.170;5.386;2023-04-15T14:50:10;21.20;32.10
70807;DHT22;58882;52.170;5.386;2023-04-15T14:52:37;21.20;32.00
70807;DHT22;58882;52.170;5.386;2023-04-15T14:55:09;21.10;32.20
70807;DHT22;58882;52.170;5.386;2023-04-15T14:57:37;21.00;32.40
70807;DHT22;58882;52.170;5.386;2023-04-15T15:00:06;21.00;32.50
70807;DHT22;58882;52.170;5.386;2023-04-15T15:02:33;21.00;32.50
70807;DHT22;58882;52.170;5.386;2023-04-15T15:05:03;20.90;32.60
70807;DHT22;58882;52.170;5.386;2023-04-15T15:07:30;20.80;32.90
70807;DHT22;58882;52.170;5.386;2023-04-15T15:09:57;20.70;32.80
70807;DHT22;58882;52.170;5.386;2023-04-15T15:12:24;20.60;33.10
70807;DHT22;58882;52.170;5.386;2023-04-15T15:14:51;20.60;33.10
70807;DHT22;58882;52.170;5.386;2023-04-15T15:17:17;20.60;33.20
70807;DHT22;58882;52.170;5.386;2023-04-15T15:19:44;20.60;33.20
70807;DHT22;58882;52.170;5.386;2023-04-15T15:22:11;20.60;33.10
70807;DHT22;58882;52.170;5.386;2023-04-15T15:24:38;20.50;33.30
70807;DHT22;58882;52.170;5.386;2023-04-15T15:27:05;20.40;33.50
70807;DHT22;58882;52.170;5.386;2023-04-15T15:29:31;20.40;33.60
70807;DHT22;58882;52.170;5.386;2023-04-15T15:31:58;20.40;33.80
70807;DHT22;58882;52.170;5.386;2023-04-15T15:34:25;20.30;33.70
70807;DHT22;58882;52.170;5.386;2023-04-15T15:36:52;20.20;33.80
70807;DHT22;58882;52.170;5.386;2023-04-15T15:39:22;20.10;34.00
70807;DHT22;58882;52.170;5.386;2023-04-15T15:41:49;20.00;34.30
70807;DHT22;58882;52.170;5.386;2023-04-15T15:44:16;20.00;34.30
70807;DHT22;58882;52.170;5.386;2023-04-15T15:46:42;20.00;34.30
70807;DHT22;58882;52.170;5.386;2023-04-15T15:49:10;20.00;34.50
70807;DHT22;58882;52.170;5.386;2023-04-15T15:51:37;19.90;34.70